sensor_id;sensor_type;location;lat;lon;timestamp;pressure;altitude;pressure_sealevel;temperature;humidity
78014;BME280;67222;50.182;8.734;2023-03-01T05:31:01;101554.13;;;-1.02;70.10
78014;BME280;67222;50.182;8.734;2023-03-01T05:33:27;101541.13;;;-1.04;70.09
78014;BME280;67222;50.182;8.734;2023-03-01T05:35:53;101536.72;;;-1.03;70.19
78014;BME280;67222;50.182;8.734;2023-03-01T05:38:19;101544.47;;;-1.02;70.47
78014;BME280;67222;50.182;8.734;2023-03-01T05:40:47;101540.59;;;-1.09;70.72
78014;BME280;67222;50.182;8.734;2023-03-01T05:43:14;101532.75;;;-0.96;70.38
78014;BME280;67222;50.182;8.734;2023-03-01T05:45:40;101525.00;;;-0.98;71.01
78014;BME280;67222;50.182;8.734;2023-03-01T05:48:08;101534.63;;;-1.11;70.28
78014;BME280;67222;50.182;8.734;2023-03-01T05:50:37;101537.03;;;-1.08;70.24
78014;BME280;67222;50.182;8.734;2023-03-01T05:53:05;101535.66;;;-1.13;70.41
78014;BME280;67222;50.182;8.734;2023-03-01T05:55:33;101535.13;;;-1.18;71.07
78014;BME280;67222;50.182;8.734;2023-03-01T05:58:00;101538.56;;;-1.18;71.45
78014;BME280;67222;50.182;8.734;2023-03-01T06:00:27;101535.53;;;-1.12;71.46
78014;BME280;67222;50.182;8.734;2023-03-01T06:02:54;101529.41;;;-1.11;71.48
78014;BME280;67222;50.182;8.734;2023-03-01T06:05:19;101527.81;;;-1.13;71.45
78014;BME280;67222;50.182;8.734;2023-03-01T06:07:46;101537.31;;;-1.12;72.15
78014;BME280;67222;50.182;8.734;2023-03-01T06:10:12;101535.13;;;-1.18;71.17
78014;BME280;67222;50.182;8.734;2023-03-01T06:12:40;101535.47;;;-1.10;70.89
78014;BME280;67222;50.182;8.734;2023-03-01T06:15:06;101534.53;;;-1.09;70.42
78014;BME280;67222;50.182;8.734;2023-03-01T06:17:33;101530.97;;;-0.96;71.07
78014;BME280;67222;50.182;8.734;2023-03-01T06:20:03;101538.66;;;-0.93;70.57
78014;BME280;67222;50.182;8.734;2023-03-01T06:22:29;101535.09;;;-0.92;70.75
78014;BME280;67222;50.182;8.734;2023-03-01T06:24:54;101543.97;;;-0.94;71.08
78014;BME280;67222;50.182;8.734;2023-03-01T06:27:19;101533.91;;;-1.00;69.91
78014;BME280;67222;50.182;8.734;2023-03-01T06:29:45;101528.25;;;-0.94;70.52
78014;BME280;67222;50.182;8.734;2023-03-01T06:32:10;101535.28;;;-0.95;69.70
78014;BME280;67222;50.182;8.734;2023-03-01T06:34:35;101532.38;;;-0.90;70.65
78014;BME280;67222;50.182;8.734;2023-03-01T06:37:01;101530.91;;;-0.81;69.25
78014;BME280;67222;50.182;8.734;2023-03-01T06:39:30;101526.06;;;-0.75;69.49
78014;BME280;67222;50.182;8.734;2023-03-01T06:41:55;101519.38;;;-0.79;69.88
78014;BME280;67222;50.182;8.734;2023-03-01T06:44:21;101520.44;;;-0.69;68.95
78014;BME280;67222;50.182;8.734;2023-03-01T06:46:46;101520.34;;;-0.54;68.96
78014;BME280;67222;50.182;8.734;2023-03-01T06:49:12;101516.34;;;-0.47;68.58
78014;BME280;67222;50.182;8.734;2023-03-01T06:51:37;101519.25;;;-0.39;68.75
78014;BME280;67222;50.182;8.734;2023-03-01T06:54:04;101514.13;;;-0.28;69.33
78014;BME280;67222;50.182;8.734;2023-03-01T06:56:30;101518.00;;;-0.21;68.18
78014;BME280;67222;50.182;8.734;2023-03-01T06:58:56;101506.25;;;-0.15;67.88
78014;BME280;67222;50.182;8.734;2023-03-01T07:01:21;101512.72;;;-0.08;66.83
78014;BME280;67222;50.182;8.734;2023-03-01T07:03:46;101509.06;;;-0.06;67.60
78014;BME280;67222;50.182;8.734;2023-03-01T07:06:11;101512.34;;;-0.15;66.90
78014;BME280;67222;50.182;8.734;2023-03-01T07:08:37;101516.50;;;0.01;67.19
78014;BME280;67222;50.182;8.734;2023-03-01T07:11:02;101520.59;;;-0.08;67.70
78014;BME280;67222;50.182;8.734;2023-03-01T07:13:29;101513.59;;;-0.20;67.38
78014;BME280;67222;50.182;8.734;2023-03-01T07:15:54;101513.19;;;-0.40;67.57
78014;BME280;67222;50.182;8.734;2023-03-01T07:18:19;101520.94;;;-0.25;67.07
78014;BME280;67222;50.182;8.734;2023-03-01T07:20:44;101522.84;;;-0.40;68.04
78014;BME280;67222;50.182;8.734;2023-03-01T07:23:10;101515.81;;;-0.40;68.13
78014;BME280;67222;50.182;8.734;2023-03-01T07:25:35;101507.75;;;-0.49;68.10
78014;BME280;67222;50.182;8.734;2023-03-01T07:28:01;101509.75;;;-0.53;69.04
78014;BME280;67222;50.182;8.734;2023-03-01T07:30:26;101521.47;;;-0.58;69.00
78014;BME280;67222;50.182;8.734;2023-03-01T07:32:56;101512.47;;;-0.67;69.43
78014;BME280;67222;50.182;8.734;2023-03-01T07:35:23;101508.91;;;-0.66;69.62
78014;BME280;67222;50.182;8.734;2023-03-01T07:37:49;101499.28;;;-0.66;69.13
78014;BME280;67222;50.182;8.734;2023-03-01T07:40:15;101502.41;;;-0.61;68.72
78014;BME280;67222;50.182;8.734;2023-03-01T07:42:40;101509.44;;;-0.61;69.31
78014;BME280;67222;50.182;8.734;2023-03-01T07:45:06;101499.78;;;-0.61;69.08
78014;BME280;67222;50.182;8.734;2023-03-01T07:47:32;101494.44;;;-0.59;69.06
78014;BME280;67222;50.182;8.734;2023-03-01T07:49:58;101496.56;;;-0.51;68.84
78014;BME280;67222;50.182;8.734;2023-03-01T07:52:23;101500.63;;;-0.60;68.63
78014;BME280;67222;50.182;8.734;2023-03-01T07:54:49;101495.63;;;-0.50;68.52
78014;BME280;67222;50.182;8.734;2023-03-01T07:57:14;101499.38;;;-0.42;68.04
78014;BME280;67222;50.182;8.734;2023-03-01T07:59:39;101503.88;;;-0.44;68.38
78014;BME280;67222;50.182;8.734;2023-03-01T08:02:05;101497.78;;;-0.44;68.76
78014;BME280;67222;50.182;8.734;2023-03-01T08:04:31;101497.16;;;-0.35;68.69
78014;BME280;67222;50.182;8.734;2023-03-01T08:06:58;101506.38;;;-0.29;68.70
78014;BME280;67222;50.182;8.734;2023-03-01T08:09:23;101499.47;;;-0.31;68.52
78014;BME280;67222;50.182;8.734;2023-03-01T08:11:48;101498.81;;;-0.21;68.65
78014;BME280;67222;50.182;8.734;2023-03-01T08:14:14;101503.63;;;-0.15;68.64
78014;BME280;67222;50.182;8.734;2023-03-01T08:16:39;101506.25;;;-0.15;68.75
78014;BME280;67222;50.182;8.734;2023-03-01T08:19:06;101504.22;;;0.01;68.71
78014;BME280;67222;50.182;8.734;2023-03-01T08:21:32;101491.72;;;0.05;68.51
78014;BME280;67222;50.182;8.734;2023-03-01T08:23:59;101495.13;;;0.18;67.88
78014;BME280;67222;50.182;8.734;2023-03-01T08:26:25;101485.28;;;0.21;68.03
78014;BME280;67222;50.182;8.734;2023-03-01T08:28:50;101475.78;;;0.32;67.64
78014;BME280;67222;50.182;8.734;2023-03-01T08:31:36;101481.81;;;0.45;68.16
78014;BME280;67222;50.182;8.734;2023-03-01T08:34:06;101480.94;;;0.57;68.58
78014;BME280;67222;50.182;8.734;2023-03-01T08:36:36;101479.03;;;0.59;68.13
78014;BME280;67222;50.182;8.734;2023-03-01T08:39:04;101475.97;;;0.76;67.23
78014;BME280;67222;50.182;8.734;2023-03-01T08:41:29;101472.53;;;0.87;67.29
78014;BME280;67222;50.182;8.734;2023-03-01T08:43:55;101473.25;;;0.89;67.71
78014;BME280;67222;50.182;8.734;2023-03-01T08:46:27;101465.25;;;0.90;67.14
78014;BME280;67222;50.182;8.734;2023-03-01T08:48:53;101462.66;;;1.02;66.81
78014;BME280;67222;50.182;8.734;2023-03-01T08:51:20;101462.06;;;1.09;66.64
78014;BME280;67222;50.182;8.734;2023-03-01T08:53:46;101460.06;;;1.24;65.96
78014;BME280;67222;50.182;8.734;2023-03-01T08:56:11;101448.25;;;1.30;66.28
78014;BME280;67222;50.182;8.734;2023-03-01T08:58:37;101450.06;;;1.40;65.85
78014;BME280;67222;50.182;8.734;2023-03-01T09:01:11;101449.44;;;1.48;64.64
78014;BME280;67222;50.182;8.734;2023-03-01T09:03:36;101446.81;;;1.59;63.85
78014;BME280;67222;50.182;8.734;2023-03-01T09:06:04;101452.66;;;1.63;64.02
78014;BME280;67222;50.182;8.734;2023-03-01T09:08:31;101449.41;;;1.81;63.38
78014;BME280;67222;50.182;8.734;2023-03-01T09:11:01;101445.59;;;1.86;62.03
78014;BME280;67222;50.182;8.734;2023-03-01T09:13:28;101433.13;;;1.99;61.65
78014;BME280;67222;50.182;8.734;2023-03-01T09:15:56;101433.59;;;2.04;61.58
78014;BME280;67222;50.182;8.734;2023-03-01T09:18:21;101436.69;;;2.09;61.71
78014;BME280;67222;50.182;8.734;2023-03-01T09:20:46;101428.44;;;2.13;61.50
78014;BME280;67222;50.182;8.734;2023-03-01T09:23:12;101422.19;;;2.26;61.09
78014;BME280;67222;50.182;8.734;2023-03-01T09:25:37;101422.19;;;2.26;61.04
78014;BME280;67222;50.182;8.734;2023-03-01T09:28:02;101417.69;;;2.37;60.11
78014;BME280;67222;50.182;8.734;2023-03-01T09:30:28;101418.41;;;2.39;59.89
78014;BME280;67222;50.182;8.734;2023-03-01T09:32:56;101413.09;;;2.51;59.75
78014;BME280;67222;50.182;8.734;2023-03-01T09:35:21;101417.00;;;2.56;60.21
78014;BME280;67222;50.182;8.734;2023-03-01T09:37:48;101410.06;;;2.55;59.73
78014;BME280;67222;50.182;8.734;2023-03-01T09:40:17;101413.50;;;2.67;59.71
78014;BME280;67222;50.182;8.734;2023-03-01T09:43:06;101399.41;;;2.78;59.65
78014;BME280;67222;50.182;8.734;2023-03-01T09:45:35;101399.22;;;2.90;58.78
78014;BME280;67222;50.182;8.734;2023-03-01T09:48:03;101401.66;;;3.03;58.89
78014;BME280;67222;50.182;8.734;2023-03-01T09:50:39;101392.09;;;3.12;57.59
78014;BME280;67222;50.182;8.734;2023-03-01T09:53:10;101390.09;;;3.25;58.24
78014;BME280;67222;50.182;8.734;2023-03-01T09:55:37;101396.28;;;3.45;57.84
78014;BME280;67222;50.182;8.734;2023-03-01T10:00:44;101383.56;;;3.59;56.52
78014;BME280;67222;50.182;8.734;2023-03-01T10:03:17;101378.47;;;3.77;57.34
78014;BME280;67222;50.182;8.734;2023-03-01T10:08:33;101386.13;;;4.00;56.14
78014;BME280;67222;50.182;8.734;2023-03-01T10:11:02;101385.31;;;4.18;55.09
78014;BME280;67222;50.182;8.734;2023-03-01T10:13:37;101384.88;;;4.23;55.11
78014;BME280;67222;50.182;8.734;2023-03-01T10:18:37;101383.63;;;4.27;54.15
78014;BME280;67222;50.182;8.734;2023-03-01T10:21:12;101371.13;;;4.39;53.87
78014;BME280;67222;50.182;8.734;2023-03-01T10:23:38;101378.63;;;4.43;53.20
78014;BME280;67222;50.182;8.734;2023-03-01T10:26:07;101376.25;;;4.50;53.74
78014;BME280;67222;50.182;8.734;2023-03-01T10:31:19;101364.41;;;4.73;53.20
78014;BME280;67222;50.182;8.734;2023-03-01T10:33:45;101363.06;;;4.97;52.98
78014;BME280;67222;50.182;8.734;2023-03-01T10:36:13;101359.44;;;5.07;52.05
78014;BME280;67222;50.182;8.734;2023-03-01T10:38:55;101358.97;;;5.22;51.90
78014;BME280;67222;50.182;8.734;2023-03-01T10:41:23;101357.22;;;5.40;51.61
78014;BME280;67222;50.182;8.734;2023-03-01T10:43:53;101353.50;;;5.51;51.29
78014;BME280;67222;50.182;8.734;2023-03-01T10:46:27;101351.19;;;5.65;51.04
78014;BME280;67222;50.182;8.734;2023-03-01T10:49:23;101342.19;;;5.76;50.50
78014;BME280;67222;50.182;8.734;2023-03-01T10:51:52;101336.63;;;5.79;50.17
78014;BME280;67222;50.182;8.734;2023-03-01T10:54:38;101328.94;;;6.03;49.80
78014;BME280;67222;50.182;8.734;2023-03-01T10:57:27;101328.03;;;6.13;49.96
78014;BME280;67222;50.182;8.734;2023-03-01T11:00:10;101322.41;;;6.33;50.50
78014;BME280;67222;50.182;8.734;2023-03-01T11:02:40;101308.56;;;6.40;49.47
78014;BME280;67222;50.182;8.734;2023-03-01T11:07:54;101288.63;;;6.53;48.61
78014;BME280;67222;50.182;8.734;2023-03-01T11:10:25;101287.16;;;6.93;48.02
78014;BME280;67222;50.182;8.734;2023-03-01T11:12:52;101284.88;;;7.06;48.27
78014;BME280;67222;50.182;8.734;2023-03-01T11:15:24;101276.31;;;7.12;47.33
78014;BME280;67222;50.182;8.734;2023-03-01T11:17:50;101274.66;;;7.11;46.36
78014;BME280;67222;50.182;8.734;2023-03-01T11:20:35;101271.34;;;7.09;44.87
78014;BME280;67222;50.182;8.734;2023-03-01T11:23:21;101271.91;;;7.37;46.63
78014;BME280;67222;50.182;8.734;2023-03-01T11:26:07;101269.78;;;7.57;45.86
78014;BME280;67222;50.182;8.734;2023-03-01T11:28:37;101265.16;;;7.75;45.87
78014;BME280;67222;50.182;8.734;2023-03-01T11:31:09;101267.34;;;7.96;44.73
78014;BME280;67222;50.182;8.734;2023-03-01T11:33:48;101255.88;;;8.20;44.84
78014;BME280;67222;50.182;8.734;2023-03-01T11:39:17;101243.91;;;8.48;42.37
78014;BME280;67222;50.182;8.734;2023-03-01T11:41:48;101244.03;;;8.63;41.44
78014;BME280;67222;50.182;8.734;2023-03-01T11:44:24;101245.41;;;8.90;41.36
78014;BME280;67222;50.182;8.734;2023-03-01T11:50:05;101234.22;;;9.11;40.03
78014;BME280;67222;50.182;8.734;2023-03-01T11:58:29;101220.94;;;9.34;39.86
78014;BME280;67222;50.182;8.734;2023-03-01T12:06:53;101205.41;;;9.83;38.93
78014;BME280;67222;50.182;8.734;2023-03-01T12:12:11;101202.47;;;9.78;39.51
78014;BME280;67222;50.182;8.734;2023-03-01T12:15:06;101198.00;;;9.93;39.01
78014;BME280;67222;50.182;8.734;2023-03-01T12:20:40;101189.06;;;10.39;37.61
78014;BME280;67222;50.182;8.734;2023-03-01T12:23:25;101179.78;;;10.49;37.96
78014;BME280;67222;50.182;8.734;2023-03-01T12:44:32;101147.69;;;12.00;33.68
78014;BME280;67222;50.182;8.734;2023-03-01T12:47:16;101136.78;;;12.30;33.22
78014;BME280;67222;50.182;8.734;2023-03-01T12:49:59;101135.66;;;12.59;32.34
78014;BME280;67222;50.182;8.734;2023-03-01T12:52:43;101126.44;;;12.68;32.32
78014;BME280;67222;50.182;8.734;2023-03-01T12:55:26;101137.56;;;12.65;31.37
78014;BME280;67222;50.182;8.734;2023-03-01T12:58:29;101131.41;;;12.78;31.79
78014;BME280;67222;50.182;8.734;2023-03-01T13:04:16;101120.66;;;13.25;32.66
78014;BME280;67222;50.182;8.734;2023-03-01T13:07:14;101117.78;;;13.20;32.63
78014;BME280;67222;50.182;8.734;2023-03-01T13:10:06;101124.72;;;13.08;33.16
78014;BME280;67222;50.182;8.734;2023-03-01T13:17:46;101116.34;;;13.44;31.72
78014;BME280;67222;50.182;8.734;2023-03-01T13:20:15;101112.44;;;13.60;31.28
78014;BME280;67222;50.182;8.734;2023-03-01T13:22:41;101109.53;;;13.68;31.03
78014;BME280;67222;50.182;8.734;2023-03-01T13:25:19;101104.16;;;13.68;32.01
78014;BME280;67222;50.182;8.734;2023-03-01T13:27:46;101104.78;;;13.70;31.89
78014;BME280;67222;50.182;8.734;2023-03-01T13:33:33;101093.66;;;13.73;32.45
78014;BME280;67222;50.182;8.734;2023-03-01T13:36:05;101084.78;;;13.79;31.21
78014;BME280;67222;50.182;8.734;2023-03-01T13:38:48;101071.59;;;13.38;31.58
78014;BME280;67222;50.182;8.734;2023-03-01T13:44:24;101071.00;;;13.23;31.73
78014;BME280;67222;50.182;8.734;2023-03-01T13:46:53;101067.63;;;12.94;32.11
78014;BME280;67222;50.182;8.734;2023-03-01T13:49:28;101067.47;;;13.09;32.94
78014;BME280;67222;50.182;8.734;2023-03-01T13:51:54;101062.91;;;13.16;32.44
78014;BME280;67222;50.182;8.734;2023-03-01T13:54:28;101061.91;;;13.11;32.49
78014;BME280;67222;50.182;8.734;2023-03-01T13:56:55;101058.56;;;12.95;32.81
78014;BME280;67222;50.182;8.734;2023-03-01T13:59:22;101059.75;;;12.66;32.10
78014;BME280;67222;50.182;8.734;2023-03-01T14:01:59;101058.06;;;12.52;32.77
78014;BME280;67222;50.182;8.734;2023-03-01T14:04:29;101047.72;;;12.42;32.19
78014;BME280;67222;50.182;8.734;2023-03-01T14:09:41;101045.03;;;12.36;33.45
78014;BME280;67222;50.182;8.734;2023-03-01T14:15:10;101046.53;;;12.04;33.82
78014;BME280;67222;50.182;8.734;2023-03-01T14:17:52;101050.84;;;11.98;34.47
78014;BME280;67222;50.182;8.734;2023-03-01T14:20:29;101041.56;;;11.94;34.41
78014;BME280;67222;50.182;8.734;2023-03-01T14:22:58;101057.34;;;11.61;34.60
78014;BME280;67222;50.182;8.734;2023-03-01T14:25:35;101054.09;;;11.38;34.28
78014;BME280;67222;50.182;8.734;2023-03-01T14:28:16;101047.19;;;11.22;34.54
78014;BME280;67222;50.182;8.734;2023-03-01T14:30:45;101050.75;;;11.08;35.26
78014;BME280;67222;50.182;8.734;2023-03-01T14:33:27;101056.09;;;10.86;34.98
78014;BME280;67222;50.182;8.734;2023-03-01T14:36:01;101059.03;;;10.91;36.33
78014;BME280;67222;50.182;8.734;2023-03-01T14:41:02;101052.41;;;10.66;36.01
78014;BME280;67222;50.182;8.734;2023-03-01T14:43:29;101051.22;;;10.54;35.76
78014;BME280;67222;50.182;8.734;2023-03-01T14:45:55;101043.56;;;10.29;35.96
78014;BME280;67222;50.182;8.734;2023-03-01T14:48:21;101048.47;;;10.26;36.72
78014;BME280;67222;50.182;8.734;2023-03-01T14:50:47;101037.41;;;10.14;36.51
78014;BME280;67222;50.182;8.734;2023-03-01T14:53:28;101036.41;;;10.00;36.72
78014;BME280;67222;50.182;8.734;2023-03-01T14:55:59;101034.09;;;9.83;36.37
78014;BME280;67222;50.182;8.734;2023-03-01T14:58:27;101027.03;;;9.75;36.86
78014;BME280;67222;50.182;8.734;2023-03-01T15:00:59;101028.88;;;9.75;37.50
78014;BME280;67222;50.182;8.734;2023-03-01T15:05:57;101032.44;;;9.52;37.97
78014;BME280;67222;50.182;8.734;2023-03-01T15:08:24;101026.25;;;9.22;37.94
78014;BME280;67222;50.182;8.734;2023-03-01T15:10:59;101025.72;;;9.04;37.98
78014;BME280;67222;50.182;8.734;2023-03-01T15:13:28;101033.81;;;9.10;39.12
78014;BME280;67222;50.182;8.734;2023-03-01T15:16:02;101033.28;;;8.92;37.98
78014;BME280;67222;50.182;8.734;2023-03-01T15:18:29;101033.94;;;8.71;38.73
78014;BME280;67222;50.182;8.734;2023-03-01T15:20:55;101027.22;;;8.61;39.42
78014;BME280;67222;50.182;8.734;2023-03-01T15:23:25;101037.13;;;8.44;39.21
78014;BME280;67222;50.182;8.734;2023-03-01T15:25:52;101022.88;;;8.29;38.93
78014;BME280;67222;50.182;8.734;2023-03-01T15:28:27;101023.69;;;8.29;39.07
78014;BME280;67222;50.182;8.734;2023-03-01T15:31:00;101031.03;;;8.27;39.52
78014;BME280;67222;50.182;8.734;2023-03-01T15:33:34;101023.94;;;8.19;40.37
78014;BME280;67222;50.182;8.734;2023-03-01T15:38:59;101037.06;;;8.13;40.86
78014;BME280;67222;50.182;8.734;2023-03-01T15:41:31;101041.13;;;8.01;40.91
78014;BME280;67222;50.182;8.734;2023-03-01T15:43:58;101046.25;;;7.94;41.81
78014;BME280;67222;50.182;8.734;2023-03-01T15:46:35;101049.25;;;7.91;41.39
78014;BME280;67222;50.182;8.734;2023-03-01T15:51:51;101047.31;;;7.77;41.51
78014;BME280;67222;50.182;8.734;2023-03-01T15:54:21;101045.19;;;7.64;41.52
78014;BME280;67222;50.182;8.734;2023-03-01T15:56:47;101042.22;;;7.51;41.53
78014;BME280;67222;50.182;8.734;2023-03-01T15:59:13;101054.34;;;7.45;42.50
78014;BME280;67222;50.182;8.734;2023-03-01T16:01:42;101049.69;;;7.39;43.09
78014;BME280;67222;50.182;8.734;2023-03-01T16:04:16;101053.38;;;7.30;41.61
78014;BME280;67222;50.182;8.734;2023-03-01T16:06:53;101049.22;;;7.19;42.24
78014;BME280;67222;50.182;8.734;2023-03-01T16:09:25;101057.81;;;7.05;42.39
78014;BME280;67222;50.182;8.734;2023-03-01T16:11:52;101060.66;;;6.95;41.65
78014;BME280;67222;50.182;8.734;2023-03-01T16:14:18;101061.28;;;6.81;43.30
78014;BME280;67222;50.182;8.734;2023-03-01T16:16:44;101061.00;;;6.92;43.36
78014;BME280;67222;50.182;8.734;2023-03-01T16:19:09;101067.75;;;6.87;44.38
78014;BME280;67222;50.182;8.734;2023-03-01T16:21:35;101057.97;;;6.71;44.41
78014;BME280;67222;50.182;8.734;2023-03-01T16:24:01;101067.88;;;6.61;43.61
78014;BME280;67222;50.182;8.734;2023-03-01T16:26:26;101063.41;;;6.53;44.67
78014;BME280;67222;50.182;8.734;2023-03-01T16:28:54;101062.19;;;6.40;43.93
78014;BME280;67222;50.182;8.734;2023-03-01T16:31:20;101074.28;;;6.34;44.07
78014;BME280;67222;50.182;8.734;2023-03-01T16:33:45;101068.44;;;6.30;44.63
78014;BME280;67222;50.182;8.734;2023-03-01T16:36:16;101071.56;;;6.26;44.16
78014;BME280;67222;50.182;8.734;2023-03-01T16:38:42;101065.09;;;6.20;45.56
78014;BME280;67222;50.182;8.734;2023-03-01T16:41:16;101060.97;;;6.18;45.77
78014;BME280;67222;50.182;8.734;2023-03-01T16:43:41;101064.03;;;6.05;44.22
78014;BME280;67222;50.182;8.734;2023-03-01T16:46:16;101061.53;;;5.95;45.55
78014;BME280;67222;50.182;8.734;2023-03-01T16:48:42;101060.00;;;5.93;45.02
78014;BME280;67222;50.182;8.734;2023-03-01T16:51:08;101064.91;;;5.88;46.24
78014;BME280;67222;50.182;8.734;2023-03-01T16:53:34;101060.94;;;5.84;46.08
78014;BME280;67222;50.182;8.734;2023-03-01T16:56:02;101072.28;;;5.76;46.73
78014;BME280;67222;50.182;8.734;2023-03-01T16:58:28;101072.91;;;5.70;45.88
78014;BME280;67222;50.182;8.734;2023-03-01T17:00:54;101067.75;;;5.60;46.85
78014;BME280;67222;50.182;8.734;2023-03-01T17:03:20;101068.19;;;5.56;46.39
78014;BME280;67222;50.182;8.734;2023-03-01T17:05:46;101079.91;;;5.53;47.38
78014;BME280;67222;50.182;8.734;2023-03-01T17:08:12;101077.28;;;5.53;48.42
78014;BME280;67222;50.182;8.734;2023-03-01T17:10:37;101072.94;;;5.44;47.35
78014;BME280;67222;50.182;8.734;2023-03-01T17:13:02;101088.78;;;5.44;47.38
78014;BME280;67222;50.182;8.734;2023-03-01T17:15:28;101080.25;;;5.32;48.20
78014;BME280;67222;50.182;8.734;2023-03-01T17:17:53;101086.16;;;5.26;49.13
78014;BME280;67222;50.182;8.734;2023-03-01T17:20:19;101076.19;;;5.20;49.76
78014;BME280;67222;50.182;8.734;2023-03-01T17:22:44;101085.56;;;5.14;49.88
78014;BME280;67222;50.182;8.734;2023-03-01T17:25:10;101087.53;;;4.95;50.34
78014;BME280;67222;50.182;8.734;2023-03-01T17:27:37;101093.28;;;4.90;50.28
78014;BME280;67222;50.182;8.734;2023-03-01T17:30:06;101091.00;;;4.77;50.13
78014;BME280;67222;50.182;8.734;2023-03-01T17:32:32;101088.66;;;4.74;50.64
78014;BME280;67222;50.182;8.734;2023-03-01T17:34:57;101106.38;;;4.64;51.90
78014;BME280;67222;50.182;8.734;2023-03-01T17:37:22;101110.22;;;4.52;51.99
78014;BME280;67222;50.182;8.734;2023-03-01T17:39:48;101105.72;;;4.35;51.73
78014;BME280;67222;50.182;8.734;2023-03-01T17:42:14;101107.22;;;4.37;51.22
78014;BME280;67222;50.182;8.734;2023-03-01T17:44:39;101111.59;;;4.29;52.42
78014;BME280;67222;50.182;8.734;2023-03-01T17:47:05;101113.66;;;4.25;53.38
78014;BME280;67222;50.182;8.734;2023-03-01T17:49:30;101114.66;;;4.24;52.44
78014;BME280;67222;50.182;8.734;2023-03-01T17:51:56;101114.16;;;4.11;53.28
78014;BME280;67222;50.182;8.734;2023-03-01T17:54:22;101119.59;;;4.09;54.04
78014;BME280;67222;50.182;8.734;2023-03-01T17:56:47;101115.00;;;4.02;53.98
78014;BME280;67222;50.182;8.734;2023-03-01T17:59:12;101120.03;;;3.95;54.92
78014;BME280;67222;50.182;8.734;2023-03-01T18:01:40;101119.38;;;3.83;54.45
78014;BME280;67222;50.182;8.734;2023-03-01T18:04:06;101129.25;;;3.72;54.49
78014;BME280;67222;50.182;8.734;2023-03-01T18:06:32;101118.59;;;3.63;55.53
78014;BME280;67222;50.182;8.734;2023-03-01T18:08:57;101115.25;;;3.61;55.96
78014;BME280;67222;50.182;8.734;2023-03-01T18:11:23;101131.66;;;3.55;54.90
78014;BME280;67222;50.182;8.734;2023-03-01T18:13:49;101126.38;;;3.46;56.53
78014;BME280;67222;50.182;8.734;2023-03-01T18:16:17;101127.78;;;3.40;56.46
78014;BME280;67222;50.182;8.734;2023-03-01T18:18:43;101121.53;;;3.41;56.55
78014;BME280;67222;50.182;8.734;2023-03-01T18:21:12;101123.78;;;3.36;57.42
78014;BME280;67222;50.182;8.734;2023-03-01T18:23:38;101127.91;;;3.29;55.90
78014;BME280;67222;50.182;8.734;2023-03-01T18:26:06;101123.75;;;3.07;55.89
78014;BME280;67222;50.182;8.734;2023-03-01T18:28:32;101123.50;;;3.00;55.36
78014;BME280;67222;50.182;8.734;2023-03-01T18:31:02;101127.34;;;3.16;56.48
78014;BME280;67222;50.182;8.734;2023-03-01T18:33:30;101118.75;;;3.14;56.45
78014;BME280;67222;50.182;8.734;2023-03-01T18:35:56;101108.91;;;3.16;56.38
78014;BME280;67222;50.182;8.734;2023-03-01T18:38:22;101109.91;;;3.05;55.69
78014;BME280;67222;50.182;8.734;2023-03-01T18:40:47;101102.00;;;3.05;56.08
78014;BME280;67222;50.182;8.734;2023-03-01T18:43:13;101096.84;;;3.13;57.23
78014;BME280;67222;50.182;8.734;2023-03-01T18:45:38;101093.81;;;2.98;55.78
78014;BME280;67222;50.182;8.734;2023-03-01T18:48:03;101090.75;;;2.93;56.43
78014;BME280;67222;50.182;8.734;2023-03-01T18:50:29;101088.66;;;2.87;55.11
78014;BME280;67222;50.182;8.734;2023-03-01T18:52:54;101091.72;;;2.83;55.06
78014;BME280;67222;50.182;8.734;2023-03-01T18:55:20;101089.47;;;2.78;55.15
78014;BME280;67222;50.182;8.734;2023-03-01T18:57:45;101082.69;;;2.76;55.41
78014;BME280;67222;50.182;8.734;2023-03-01T19:00:11;101085.03;;;2.79;54.16
78014;BME280;67222;50.182;8.734;2023-03-01T19:02:37;101100.59;;;2.82;55.07
78014;BME280;67222;50.182;8.734;2023-03-01T19:05:02;101102.25;;;2.83;55.56
78014;BME280;67222;50.182;8.734;2023-03-01T19:07:28;101102.78;;;2.77;55.00
78014;BME280;67222;50.182;8.734;2023-03-01T19:09:53;101100.44;;;2.73;55.29
78014;BME280;67222;50.182;8.734;2023-03-01T19:12:19;101097.13;;;2.81;55.37
78014;BME280;67222;50.182;8.734;2023-03-01T19:14:44;101091.16;;;2.69;54.86
78014;BME280;67222;50.182;8.734;2023-03-01T19:17:09;101094.47;;;2.71;55.25
78014;BME280;67222;50.182;8.734;2023-03-01T19:19:35;101104.88;;;2.63;55.26
78014;BME280;67222;50.182;8.734;2023-03-01T19:22:00;101102.38;;;2.71;55.21
78014;BME280;67222;50.182;8.734;2023-03-01T19:24:26;101107.19;;;2.57;56.54
78014;BME280;67222;50.182;8.734;2023-03-01T19:26:53;101102.47;;;2.51;56.79
78014;BME280;67222;50.182;8.734;2023-03-01T19:29:19;101112.84;;;2.42;57.07
78014;BME280;67222;50.182;8.734;2023-03-01T19:31:44;101113.63;;;2.33;55.64
78014;BME280;67222;50.182;8.734;2023-03-01T19:34:10;101115.72;;;2.39;57.79
78014;BME280;67222;50.182;8.734;2023-03-01T19:36:37;101120.16;;;2.39;58.30
78014;BME280;67222;50.182;8.734;2023-03-01T19:39:05;101119.16;;;2.30;57.20
78014;BME280;67222;50.182;8.734;2023-03-01T19:41:31;101124.69;;;2.27;57.48
78014;BME280;67222;50.182;8.734;2023-03-01T19:43:56;101120.06;;;2.10;57.93
78014;BME280;67222;50.182;8.734;2023-03-01T19:46:22;101125.31;;;2.10;57.34
78014;BME280;67222;50.182;8.734;2023-03-01T19:48:48;101127.94;;;2.10;58.20
78014;BME280;67222;50.182;8.734;2023-03-01T19:51:13;101123.94;;;2.06;59.27
78014;BME280;67222;50.182;8.734;2023-03-01T19:53:39;101125.25;;;2.00;59.87
78014;BME280;67222;50.182;8.734;2023-03-01T19:56:05;101126.09;;;2.01;59.71
78014;BME280;67222;50.182;8.734;2023-03-01T19:58:31;101119.50;;;2.06;59.08
78014;BME280;67222;50.182;8.734;2023-03-01T20:00:57;101113.22;;;1.98;59.97
78014;BME280;67222;50.182;8.734;2023-03-01T20:03:32;101110.78;;;2.06;59.70